sensor_id;sensor_type;location;lat;lon;timestamp;temperature;humidity
1359;DHT22;673;48.098;14.422;2023-03-01T00:01:40;-1.00;99.90
1359;DHT22;673;48.098;14.422;2023-03-01T00:04:08;-1.00;99.90
1359;DHT22;673;48.098;14.422;2023-03-01T00:06:35;-1.00;99.90
1359;DHT22;673;48.098;14.422;2023-03-01T00:09:03;-1.00;99.90
1359;DHT22;673;48.098;14.422;2023-03-01T00:11:31;-1.00;99.90
1359;DHT22;673;48.098;14.422;2023-03-01T00:14:00;-1.00;99.90
1359;DHT22;673;48.098;14.422;2023-03-01T00:16:30;-1.10;99.90
1359;DHT22;673;48.098;14.422;2023-03-01T00:18:59;-1.10;99.90
1359;DHT22;673;48.098;14.422;2023-03-01T00:21:27;-1.10;99.90
1359;DHT22;673;48.098;14.422;2023-03-01T00:23:55;-1.10;99.90
1359;DHT22;673;48.098;14.422;2023-03-01T00:26:24;-1.10;99.90
1359;DHT22;673;48.098;14.422;2023-03-01T00:28:52;-1.10;99.90
1359;DHT22;673;48.098;14.422;2023-03-01T00:31:23;-1.10;99.90
1359;DHT22;673;48.098;14.422;2023-03-01T00:33:52;-1.20;99.90
1359;DHT22;673;48.098;14.422;2023-03-01T00:36:23;-1.20;99.90
1359;DHT22;673;48.098;14.422;2023-03-01T00:38:52;-1.20;99.90
1359;DHT22;673;48.098;14.422;2023-03-01T00:41:20;-1.20;99.90
1359;DHT22;673;48.098;14.422;2023-03-01T00:43:49;-1.20;99.90
1359;DHT22;673;48.098;14.422;2023-03-01T00:46:18;-1.20;99.90
1359;DHT22;673;48.098;14.422;2023-03-01T00:48:46;-1.10;99.90
1359;DHT22;673;48.098;14.422;2023-03-01T00:51:15;-1.20;99.90
1359;DHT22;673;48.098;14.422;2023-03-01T00:53:43;-1.20;99.90
1359;DHT22;673;48.098;14.422;2023-03-01T00:56:13;-1.20;99.90
1359;DHT22;673;48.098;14.422;2023-03-01T00:58:40;-1.20;99.90
1359;DHT22;673;48.098;14.422;2023-03-01T01:01:08;-1.30;99.90
1359;DHT22;673;48.098;14.422;2023-03-01T01:03:43;-1.30;99.90
1359;DHT22;673;48.098;14.422;2023-03-01T01:06:14;-1.20;99.90
1359;DHT22;673;48.098;14.422;2023-03-01T01:08:41;-1.30;99.90
1359;DHT22;673;48.098;14.422;2023-03-01T01:11:11;-1.30;99.90
1359;DHT22;673;48.098;14.422;2023-03-01T01:13:38;-1.30;99.90
1359;DHT22;673;48.098;14.422;2023-03-01T01:16:06;-1.30;99.90
1359;DHT22;673;48.098;14.422;2023-03-01T01:18:33;-1.30;99.90
1359;DHT22;673;48.098;14.422;2023-03-01T01:21:05;-1.40;99.90
1359;DHT22;673;48.098;14.422;2023-03-01T01:23:32;-1.40;99.90
1359;DHT22;673;48.098;14.422;2023-03-01T01:26:03;-1.40;99.90
1359;DHT22;673;48.098;14.422;2023-03-01T01:28:32;-1.40;99.90
1359;DHT22;673;48.098;14.422;2023-03-01T01:30:59;-1.40;99.90
1359;DHT22;673;48.098;14.422;2023-03-01T01:33:26;-1.40;99.90
1359;DHT22;673;48.098;14.422;2023-03-01T01:35:53;-1.50;99.90
1359;DHT22;673;48.098;14.422;2023-03-01T01:38:20;-1.40;99.90
1359;DHT22;673;48.098;14.422;2023-03-01T01:40:49;-1.40;99.90
1359;DHT22;673;48.098;14.422;2023-03-01T01:43:21;-1.50;99.90
1359;DHT22;673;48.098;14.422;2023-03-01T01:45:51;-1.50;99.90
1359;DHT22;673;48.098;14.422;2023-03-01T01:48:22;-1.50;99.90
1359;DHT22;673;48.098;14.422;2023-03-01T01:50:56;-1.50;99.90
1359;DHT22;673;48.098;14.422;2023-03-01T01:53:25;-1.50;99.90
1359;DHT22;673;48.098;14.422;2023-03-01T01:55:57;-1.50;99.90
1359;DHT22;673;48.098;14.422;2023-03-01T01:58:28;-1.50;99.90
1359;DHT22;673;48.098;14.422;2023-03-01T02:00:57;-1.60;99.90
1359;DHT22;673;48.098;14.422;2023-03-01T02:03:31;-1.60;99.90
1359;DHT22;673;48.098;14.422;2023-03-01T02:06:06;-1.50;99.90
1359;DHT22;673;48.098;14.422;2023-03-01T02:08:36;-1.50;99.90
1359;DHT22;673;48.098;14.422;2023-03-01T02:11:05;-1.60;99.90
1359;DHT22;673;48.098;14.422;2023-03-01T02:13:33;-1.60;99.90
1359;DHT22;673;48.098;14.422;2023-03-01T02:16:04;-1.60;99.90
1359;DHT22;673;48.098;14.422;2023-03-01T02:18:31;-1.70;99.90
1359;DHT22;673;48.098;14.422;2023-03-01T02:21:06;-1.70;99.90
1359;DHT22;673;48.098;14.422;2023-03-01T02:23:34;-1.70;99.90
1359;DHT22;673;48.098;14.422;2023-03-01T02:26:07;-1.70;99.90
1359;DHT22;673;48.098;14.422;2023-03-01T02:28:39;-1.70;99.90
1359;DHT22;673;48.098;14.422;2023-03-01T02:31:08;-1.80;99.90
1359;DHT22;673;48.098;14.422;2023-03-01T02:33:54;-1.80;99.90
1359;DHT22;673;48.098;14.422;2023-03-01T02:36:23;-1.80;99.90
1359;DHT22;673;48.098;14.422;2023-03-01T02:38:53;-1.80;99.90
1359;DHT22;673;48.098;14.422;2023-03-01T02:41:23;-1.80;99.90
1359;DHT22;673;48.098;14.422;2023-03-01T02:43:52;-1.80;99.90
1359;DHT22;673;48.098;14.422;2023-03-01T02:46:22;-1.80;99.90
1359;DHT22;673;48.098;14.422;2023-03-01T02:48:51;-1.80;99.90
1359;DHT22;673;48.098;14.422;2023-03-01T02:51:45;-1.90;99.90
1359;DHT22;673;48.098;14.422;2023-03-01T02:54:19;-1.90;99.90
1359;DHT22;673;48.098;14.422;2023-03-01T02:56:48;-1.90;99.90
1359;DHT22;673;48.098;14.422;2023-03-01T02:59:19;-1.90;99.90
1359;DHT22;673;48.098;14.422;2023-03-01T03:01:46;-2.00;99.90
1359;DHT22;673;48.098;14.422;2023-03-01T03:04:16;-2.00;99.90
1359;DHT22;673;48.098;14.422;2023-03-01T03:06:43;-2.00;99.90
1359;DHT22;673;48.098;14.422;2023-03-01T03:09:11;-2.00;99.90
1359;DHT22;673;48.098;14.422;2023-03-01T03:11:39;-2.00;99.90
1359;DHT22;673;48.098;14.422;2023-03-01T03:14:06;-2.00;99.90
1359;DHT22;673;48.098;14.422;2023-03-01T03:16:40;-2.00;99.90
1359;DHT22;673;48.098;14.422;2023-03-01T03:19:07;-2.00;99.90
1359;DHT22;673;48.098;14.422;2023-03-01T03:21:34;-2.00;99.90
1359;DHT22;673;48.098;14.422;2023-03-01T03:24:02;-2.00;99.90
1359;DHT22;673;48.098;14.422;2023-03-01T03:26:29;-2.00;99.90
1359;DHT22;673;48.098;14.422;2023-03-01T03:28:57;-2.00;99.90
1359;DHT22;673;48.098;14.422;2023-03-01T03:31:23;-2.00;99.90
1359;DHT22;673;48.098;14.422;2023-03-01T03:33:52;-2.00;99.90
1359;DHT22;673;48.098;14.422;2023-03-01T03:36:21;-2.00;99.90
1359;DHT22;673;48.098;14.422;2023-03-01T03:38:49;-2.00;99.90
1359;DHT22;673;48.098;14.422;2023-03-01T03:41:16;-2.10;99.90
1359;DHT22;673;48.098;14.422;2023-03-01T03:43:43;-2.00;99.90
1359;DHT22;673;48.098;14.422;2023-03-01T03:46:11;-2.00;99.90
1359;DHT22;673;48.098;14.422;2023-03-01T03:48:40;-2.00;99.90
1359;DHT22;673;48.098;14.422;2023-03-01T03:51:10;-2.00;99.90
1359;DHT22;673;48.098;14.422;2023-03-01T03:53:37;-2.00;99.90
1359;DHT22;673;48.098;14.422;2023-03-01T03:56:05;-2.10;99.90
1359;DHT22;673;48.098;14.422;2023-03-01T03:58:32;-2.00;99.90
1359;DHT22;673;48.098;14.422;2023-03-01T04:00:59;-2.00;99.90
1359;DHT22;673;48.098;14.422;2023-03-01T04:03:28;-2.00;99.90
1359;DHT22;673;48.098;14.422;2023-03-01T04:05:57;-2.00;99.90
1359;DHT22;673;48.098;14.422;2023-03-01T04:08:26;-1.90;99.90
1359;DHT22;673;48.098;14.422;2023-03-01T04:10:58;-2.00;99.90
1359;DHT22;673;48.098;14.422;2023-03-01T04:13:26;-1.90;99.90
1359;DHT22;673;48.098;14.422;2023-03-01T04:15:53;-2.00;99.90
1359;DHT22;673;48.098;14.422;2023-03-01T04:18:22;-1.90;99.90
1359;DHT22;673;48.098;14.422;2023-03-01T04:20:50;-2.00;99.90
1359;DHT22;673;48.098;14.422;2023-03-01T04:23:21;-2.00;99.90
1359;DHT22;673;48.098;14.422;2023-03-01T04:25:51;-2.10;99.90
1359;DHT22;673;48.098;14.422;2023-03-01T04:28:21;-2.10;99.90
1359;DHT22;673;48.098;14.422;2023-03-01T04:30:50;-2.10;99.90
1359;DHT22;673;48.098;14.422;2023-03-01T04:33:18;-2.10;99.90
1359;DHT22;673;48.098;14.422;2023-03-01T04:35:45;-2.20;99.90
1359;DHT22;673;48.098;14.422;2023-03-01T04:38:15;-2.20;99.90
1359;DHT22;673;48.098;14.422;2023-03-01T04:40:42;-2.20;99.90
1359;DHT22;673;48.098;14.422;2023-03-01T04:43:12;-2.10;99.90
1359;DHT22;673;48.098;14.422;2023-03-01T04:45:40;-2.20;99.90
1359;DHT22;673;48.098;14.422;2023-03-01T04:48:07;-2.10;99.90
1359;DHT22;673;48.098;14.422;2023-03-01T04:50:34;-2.10;99.90
1359;DHT22;673;48.098;14.422;2023-03-01T04:53:02;-2.10;99.90
1359;DHT22;673;48.098;14.422;2023-03-01T04:55:29;-2.10;99.90
1359;DHT22;673;48.098;14.422;2023-03-01T04:57:57;-2.20;99.90
1359;DHT22;673;48.098;14.422;2023-03-01T05:00:25;-2.20;99.90
1359;DHT22;673;48.098;14.422;2023-03-01T05:02:53;-2.20;99.90
1359;DHT22;673;48.098;14.422;2023-03-01T05:05:22;-2.20;99.90
1359;DHT22;673;48.098;14.422;2023-03-01T05:07:52;-2.20;99.90
1359;DHT22;673;48.098;14.422;2023-03-01T05:10:19;-2.20;99.90
1359;DHT22;673;48.098;14.422;2023-03-01T05:12:46;-2.20;99.90
1359;DHT22;673;48.098;14.422;2023-03-01T05:15:14;-2.20;99.90
1359;DHT22;673;48.098;14.422;2023-03-01T05:17:42;-2.20;99.90
1359;DHT22;673;48.098;14.422;2023-03-01T05:20:10;-2.20;99.90
1359;DHT22;673;48.098;14.422;2023-03-01T05:22:37;-2.20;99.90
1359;DHT22;673;48.098;14.422;2023-03-01T05:25:05;-2.20;99.90
1359;DHT22;673;48.098;14.422;2023-03-01T05:27:33;-2.20;99.90
1359;DHT22;673;48.098;14.422;2023-03-01T05:30:00;-2.20;99.90
1359;DHT22;673;48.098;14.422;2023-03-01T05:32:41;-2.20;99.90
1359;DHT22;673;48.098;14.422;2023-03-01T05:35:11;-2.20;99.90
1359;DHT22;673;48.098;14.422;2023-03-01T05:37:40;-2.30;99.90
1359;DHT22;673;48.098;14.422;2023-03-01T05:40:09;-2.20;99.90
1359;DHT22;673;48.098;14.422;2023-03-01T05:42:43;-2.20;99.90
1359;DHT22;673;48.098;14.422;2023-03-01T05:45:11;-2.20;99.90
1359;DHT22;673;48.098;14.422;2023-03-01T05:47:39;-2.20;99.90
1359;DHT22;673;48.098;14.422;2023-03-01T05:50:12;-2.20;99.90
1359;DHT22;673;48.098;14.422;2023-03-01T05:52:39;-2.20;99.90
1359;DHT22;673;48.098;14.422;2023-03-01T05:55:07;-2.20;99.90
1359;DHT22;673;48.098;14.422;2023-03-01T05:57:34;-2.20;99.90
1359;DHT22;673;48.098;14.422;2023-03-01T06:00:01;-2.20;99.90
1359;DHT22;673;48.098;14.422;2023-03-01T06:02:28;-2.20;99.90
1359;DHT22;673;48.098;14.422;2023-03-01T06:04:55;-2.10;99.90
1359;DHT22;673;48.098;14.422;2023-03-01T06:07:24;-2.10;99.90
1359;DHT22;673;48.098;14.422;2023-03-01T06:09:51;-2.10;99.90
1359;DHT22;673;48.098;14.422;2023-03-01T06:12:18;-2.10;99.90
1359;DHT22;673;48.098;14.422;2023-03-01T06:14:46;-2.10;99.90
1359;DHT22;673;48.098;14.422;2023-03-01T06:17:13;-2.00;99.90
1359;DHT22;673;48.098;14.422;2023-03-01T06:19:40;-2.00;99.90
1359;DHT22;673;48.098;14.422;2023-03-01T06:22:07;-1.90;99.90
1359;DHT22;673;48.098;14.422;2023-03-01T06:24:36;-1.90;99.90
1359;DHT22;673;48.098;14.422;2023-03-01T06:27:03;-1.90;99.90
1359;DHT22;673;48.098;14.422;2023-03-01T06:29:30;-1.80;99.90
1359;DHT22;673;48.098;14.422;2023-03-01T06:31:57;-1.80;99.90
1359;DHT22;673;48.098;14.422;2023-03-01T06:34:24;-1.80;99.90
1359;DHT22;673;48.098;14.422;2023-03-01T06:36:50;-1.70;99.90
1359;DHT22;673;48.098;14.422;2023-03-01T06:39:17;-1.70;99.90
1359;DHT22;673;48.098;14.422;2023-03-01T06:41:46;-1.60;99.90
1359;DHT22;673;48.098;14.422;2023-03-01T06:44:13;-1.60;99.90
1359;DHT22;673;48.098;14.422;2023-03-01T06:46:40;-1.60;99.90
1359;DHT22;673;48.098;14.422;2023-03-01T06:49:07;-1.60;99.90
1359;DHT22;673;48.098;14.422;2023-03-01T06:51:35;-1.50;99.90
1359;DHT22;673;48.098;14.422;2023-03-01T06:54:03;-1.50;99.90
1359;DHT22;673;48.098;14.422;2023-03-01T06:56:30;-1.40;99.90
1359;DHT22;673;48.098;14.422;2023-03-01T06:58:59;-1.40;99.90
1359;DHT22;673;48.098;14.422;2023-03-01T07:01:28;-1.30;99.90
1359;DHT22;673;48.098;14.422;2023-03-01T07:03:55;-1.40;99.90
1359;DHT22;673;48.098;14.422;2023-03-01T07:06:23;-1.30;99.90
1359;DHT22;673;48.098;14.422;2023-03-01T07:08:50;-1.20;99.90
1359;DHT22;673;48.098;14.422;2023-03-01T07:11:17;-1.20;99.90
1359;DHT22;673;48.098;14.422;2023-03-01T07:13:44;-1.20;99.90
1359;DHT22;673;48.098;14.422;2023-03-01T07:16:12;-1.10;99.90
1359;DHT22;673;48.098;14.422;2023-03-01T07:18:39;-1.00;99.90
1359;DHT22;673;48.098;14.422;2023-03-01T07:21:07;-1.00;99.90
1359;DHT22;673;48.098;14.422;2023-03-01T07:23:34;-0.90;99.90
1359;DHT22;673;48.098;14.422;2023-03-01T07:26:02;-0.80;99.90
1359;DHT22;673;48.098;14.422;2023-03-01T07:28:29;-0.80;99.90
1359;DHT22;673;48.098;14.422;2023-03-01T07:31:01;-0.80;99.90
1359;DHT22;673;48.098;14.422;2023-03-01T07:33:30;-0.70;99.90
1359;DHT22;673;48.098;14.422;2023-03-01T07:35:57;-0.60;99.90
1359;DHT22;673;48.098;14.422;2023-03-01T07:38:25;-0.50;99.90
1359;DHT22;673;48.098;14.422;2023-03-01T07:40:52;-0.60;99.90
1359;DHT22;673;48.098;14.422;2023-03-01T07:43:19;-0.40;99.90
1359;DHT22;673;48.098;14.422;2023-03-01T07:45:47;-0.40;99.90
1359;DHT22;673;48.098;14.422;2023-03-01T07:48:14;-0.20;99.90
1359;DHT22;673;48.098;14.422;2023-03-01T07:50:42;-0.20;99.90
1359;DHT22;673;48.098;14.422;2023-03-01T07:53:09;-0.10;99.90
1359;DHT22;673;48.098;14.422;2023-03-01T07:55:36;0.00;99.90
1359;DHT22;673;48.098;14.422;2023-03-01T07:58:03;0.00;99.90
1359;DHT22;673;48.098;14.422;2023-03-01T08:00:30;0.10;99.90
1359;DHT22;673;48.098;14.422;2023-03-01T08:02:59;0.20;99.90
1359;DHT22;673;48.098;14.422;2023-03-01T08:05:26;0.20;99.90
1359;DHT22;673;48.098;14.422;2023-03-01T08:07:54;0.30;99.90
1359;DHT22;673;48.098;14.422;2023-03-01T08:10:21;0.30;99.90
1359;DHT22;673;48.098;14.422;2023-03-01T08:12:50;0.40;99.90
1359;DHT22;673;48.098;14.422;2023-03-01T08:15:17;0.60;99.90
1359;DHT22;673;48.098;14.422;2023-03-01T08:17:44;0.70;99.90
1359;DHT22;673;48.098;14.422;2023-03-01T08:20:11;0.70;99.90
1359;DHT22;673;48.098;14.422;2023-03-01T08:22:38;0.70;99.90
1359;DHT22;673;48.098;14.422;2023-03-01T08:25:07;0.70;99.90
1359;DHT22;673;48.098;14.422;2023-03-01T08:27:34;0.90;99.90
1359;DHT22;673;48.098;14.422;2023-03-01T08:30:01;1.10;99.90
1359;DHT22;673;48.098;14.422;2023-03-01T08:32:28;1.20;99.90
1359;DHT22;673;48.098;14.422;2023-03-01T08:34:55;1.30;99.90
1359;DHT22;673;48.098;14.422;2023-03-01T08:37:22;1.40;99.90
1359;DHT22;673;48.098;14.422;2023-03-01T08:39:49;1.30;99.90
1359;DHT22;673;48.098;14.422;2023-03-01T08:42:17;1.50;99.90
1359;DHT22;673;48.098;14.422;2023-03-01T08:44:44;1.70;99.90
1359;DHT22;673;48.098;14.422;2023-03-01T08:47:11;1.70;99.90
1359;DHT22;673;48.098;14.422;2023-03-01T08:49:38;1.60;99.90
1359;DHT22;673;48.098;14.422;2023-03-01T08:52:05;1.80;99.90
1359;DHT22;673;48.098;14.422;2023-03-01T08:54:32;1.60;99.90
1359;DHT22;673;48.098;14.422;2023-03-01T08:57:01;1.80;99.90
1359;DHT22;673;48.098;14.422;2023-03-01T08:59:30;1.90;99.90
1359;DHT22;673;48.098;14.422;2023-03-01T09:02:01;1.90;99.90
1359;DHT22;673;48.098;14.422;2023-03-01T09:04:28;2.10;99.90
1359;DHT22;673;48.098;14.422;2023-03-01T09:06:55;2.20;99.90
1359;DHT22;673;48.098;14.422;2023-03-01T09:09:22;2.30;99.90
1359;DHT22;673;48.098;14.422;2023-03-01T09:11:48;2.40;99.90
1359;DHT22;673;48.098;14.422;2023-03-01T09:14:16;2.50;99.90
1359;DHT22;673;48.098;14.422;2023-03-01T09:16:44;2.60;99.90
1359;DHT22;673;48.098;14.422;2023-03-01T09:19:12;2.80;99.90
1359;DHT22;673;48.098;14.422;2023-03-01T09:21:39;2.90;99.90
1359;DHT22;673;48.098;14.422;2023-03-01T09:24:07;2.90;99.90
1359;DHT22;673;48.098;14.422;2023-03-01T09:26:38;2.90;99.90
1359;DHT22;673;48.098;14.422;2023-03-01T09:29:05;3.00;99.90
1359;DHT22;673;48.098;14.422;2023-03-01T09:31:34;3.10;99.90
1359;DHT22;673;48.098;14.422;2023-03-01T09:34:03;3.20;99.90
1359;DHT22;673;48.098;14.422;2023-03-01T09:36:30;3.30;99.90
1359;DHT22;673;48.098;14.422;2023-03-01T09:38:58;3.40;99.90
1359;DHT22;673;48.098;14.422;2023-03-01T09:41:38;3.50;99.90
1359;DHT22;673;48.098;14.422;2023-03-01T09:44:16;3.60;99.90
1359;DHT22;673;48.098;14.422;2023-03-01T09:46:46;3.60;99.90
1359;DHT22;673;48.098;14.422;2023-03-01T09:49:17;3.60;99.90
1359;DHT22;673;48.098;14.422;2023-03-01T09:51:54;3.70;99.90
1359;DHT22;673;48.098;14.422;2023-03-01T09:54:22;3.80;99.90
1359;DHT22;673;48.098;14.422;2023-03-01T09:56:59;3.60;99.90
1359;DHT22;673;48.098;14.422;2023-03-01T09:59:32;3.60;99.90
1359;DHT22;673;48.098;14.422;2023-03-01T10:02:16;3.80;99.90
1359;DHT22;673;48.098;14.422;2023-03-01T10:04:50;4.20;99.90
1359;DHT22;673;48.098;14.422;2023-03-01T10:07:27;4.30;99.90
1359;DHT22;673;48.098;14.422;2023-03-01T10:09:54;4.20;99.90
1359;DHT22;673;48.098;14.422;2023-03-01T10:12:25;4.20;99.90
1359;DHT22;673;48.098;14.422;2023-03-01T10:14:57;3.90;99.90
1359;DHT22;673;48.098;14.422;2023-03-01T10:17:30;3.90;99.90
1359;DHT22;673;48.098;14.422;2023-03-01T10:20:14;4.10;99.90
1359;DHT22;673;48.098;14.422;2023-03-01T10:22:42;4.30;99.90
1359;DHT22;673;48.098;14.422;2023-03-01T10:25:14;4.40;99.90
1359;DHT22;673;48.098;14.422;2023-03-01T10:27:47;4.40;99.90
1359;DHT22;673;48.098;14.422;2023-03-01T10:30:21;4.60;99.90
1359;DHT22;673;48.098;14.422;2023-03-01T10:32:51;4.40;99.90
1359;DHT22;673;48.098;14.422;2023-03-01T10:35:23;4.60;99.90
1359;DHT22;673;48.098;14.422;2023-03-01T10:37:58;4.80;99.90
1359;DHT22;673;48.098;14.422;2023-03-01T10:40:25;4.70;99.90
1359;DHT22;673;48.098;14.422;2023-03-01T10:42:52;4.80;99.90
1359;DHT22;673;48.098;14.422;2023-03-01T10:45:37;5.10;99.90
1359;DHT22;673;48.098;14.422;2023-03-01T10:48:12;5.50;99.90
1359;DHT22;673;48.098;14.422;2023-03-01T10:50:42;5.70;99.90
1359;DHT22;673;48.098;14.422;2023-03-01T10:53:25;5.70;99.90
1359;DHT22;673;48.098;14.422;2023-03-01T10:56:03;5.40;99.90
1359;DHT22;673;48.098;14.422;2023-03-01T10:58:32;5.50;99.90
1359;DHT22;673;48.098;14.422;2023-03-01T11:01:01;5.80;99.90
1359;DHT22;673;48.098;14.422;2023-03-01T11:03:31;6.00;99.90
1359;DHT22;673;48.098;14.422;2023-03-01T11:06:03;6.20;99.90
1359;DHT22;673;48.098;14.422;2023-03-01T11:08:36;6.20;99.90
1359;DHT22;673;48.098;14.422;2023-03-01T11:11:19;6.10;99.90
1359;DHT22;673;48.098;14.422;2023-03-01T11:13:54;6.10;99.90
1359;DHT22;673;48.098;14.422;2023-03-01T11:16:33;6.20;99.90
1359;DHT22;673;48.098;14.422;2023-03-01T11:19:19;6.30;99.90
1359;DHT22;673;48.098;14.422;2023-03-01T11:22:07;6.60;99.90
1359;DHT22;673;48.098;14.422;2023-03-01T11:24:40;6.50;99.90
1359;DHT22;673;48.098;14.422;2023-03-01T11:27:18;6.40;99.90
1359;DHT22;673;48.098;14.422;2023-03-01T11:29:48;6.50;99.90
1359;DHT22;673;48.098;14.422;2023-03-01T11:32:19;6.70;99.90
1359;DHT22;673;48.098;14.422;2023-03-01T11:34:55;6.60;99.90
1359;DHT22;673;48.098;14.422;2023-03-01T11:37:33;6.60;99.90
1359;DHT22;673;48.098;14.422;2023-03-01T11:40:10;6.70;99.90
1359;DHT22;673;48.098;14.422;2023-03-01T11:42:46;6.60;99.90
1359;DHT22;673;48.098;14.422;2023-03-01T11:45:15;6.80;99.90
1359;DHT22;673;48.098;14.422;2023-03-01T11:47:52;6.80;99.90
1359;DHT22;673;48.098;14.422;2023-03-01T11:50:28;7.00;99.90
1359;DHT22;673;48.098;14.422;2023-03-01T11:53:06;7.10;99.90
1359;DHT22;673;48.098;14.422;2023-03-01T11:55:51;7.20;99.90
1359;DHT22;673;48.098;14.422;2023-03-01T11:58:36;7.30;99.90
1359;DHT22;673;48.098;14.422;2023-03-01T12:01:19;7.30;99.90
1359;DHT22;673;48.098;14.422;2023-03-01T12:04:09;6.90;99.90
1359;DHT22;673;48.098;14.422;2023-03-01T12:06:50;6.90;99.90
1359;DHT22;673;48.098;14.422;2023-03-01T12:09:38;7.00;99.90
1359;DHT22;673;48.098;14.422;2023-03-01T12:12:33;7.30;99.90
1359;DHT22;673;48.098;14.422;2023-03-01T12:15:23;7.50;99.90
1359;DHT22;673;48.098;14.422;2023-03-01T12:18:09;7.50;99.90
1359;DHT22;673;48.098;14.422;2023-03-01T12:20:43;7.30;99.90
1359;DHT22;673;48.098;14.422;2023-03-01T12:23:32;7.30;99.90
1359;DHT22;673;48.098;14.422;2023-03-01T12:26:08;7.50;99.90
1359;DHT22;673;48.098;14.422;2023-03-01T12:28:51;7.70;99.90
1359;DHT22;673;48.098;14.422;2023-03-01T12:31:53;7.50;99.90
1359;DHT22;673;48.098;14.422;2023-03-01T12:34:41;7.60;99.90
1359;DHT22;673;48.098;14.422;2023-03-01T12:37:22;7.60;99.90
1359;DHT22;673;48.098;14.422;2023-03-01T12:40:03;7.70;99.90
1359;DHT22;673;48.098;14.422;2023-03-01T12:42:46;7.60;99.90
1359;DHT22;673;48.098;14.422;2023-03-01T12:45:35;7.80;99.90
1359;DHT22;673;48.098;14.422;2023-03-01T12:48:30;7.60;99.90
1359;DHT22;673;48.098;14.422;2023-03-01T12:51:04;7.60;99.90
1359;DHT22;673;48.098;14.422;2023-03-01T12:53:36;7.40;99.90
1359;DHT22;673;48.098;14.422;2023-03-01T12:56:07;7.40;99.90
1359;DHT22;673;48.098;14.422;2023-03-01T12:58:41;7.30;99.90
1359;DHT22;673;48.098;14.422;2023-03-01T13:01:19;7.20;99.90
1359;DHT22;673;48.098;14.422;2023-03-01T13:04:07;7.20;99.90
1359;DHT22;673;48.098;14.422;2023-03-01T13:06:41;7.20;99.90
1359;DHT22;673;48.098;14.422;2023-03-01T13:09:15;7.30;99.90
1359;DHT22;673;48.098;14.422;2023-03-01T13:11:44;7.40;99.90
1359;DHT22;673;48.098;14.422;2023-03-01T13:14:45;7.30;99.90
1359;DHT22;673;48.098;14.422;2023-03-01T13:17:31;7.50;99.90
1359;DHT22;673;48.098;14.422;2023-03-01T13:19:59;7.60;99.90
1359;DHT22;673;48.098;14.422;2023-03-01T13:22:28;7.50;99.90
1359;DHT22;673;48.098;14.422;2023-03-01T13:25:03;7.60;99.90
1359;DHT22;673;48.098;14.422;2023-03-01T13:27:38;7.50;99.90
1359;DHT22;673;48.098;14.422;2023-03-01T13:30:40;7.70;99.90
1359;DHT22;673;48.098;14.422;2023-03-01T13:36:07;7.60;99.90
1359;DHT22;673;48.098;14.422;2023-03-01T13:38:38;7.40;99.90
1359;DHT22;673;48.098;14.422;2023-03-01T13:41:07;7.40;99.90
1359;DHT22;673;48.098;14.422;2023-03-01T13:43:35;7.40;99.90
1359;DHT22;673;48.098;14.422;2023-03-01T13:46:10;7.40;99.90
1359;DHT22;673;48.098;14.422;2023-03-01T13:48:39;7.30;99.90
1359;DHT22;673;48.098;14.422;2023-03-01T13:51:09;7.20;99.90
1359;DHT22;673;48.098;14.422;2023-03-01T13:53:42;7.10;99.90
1359;DHT22;673;48.098;14.422;2023-03-01T13:56:12;7.00;99.90
1359;DHT22;673;48.098;14.422;2023-03-01T13:58:51;7.10;99.90
1359;DHT22;673;48.098;14.422;2023-03-01T14:01:25;7.30;99.90
1359;DHT22;673;48.098;14.422;2023-03-01T14:03:52;7.30;99.90
1359;DHT22;673;48.098;14.422;2023-03-01T14:06:21;7.20;99.90
1359;DHT22;673;48.098;14.422;2023-03-01T14:08:50;7.10;99.90
1359;DHT22;673;48.098;14.422;2023-03-01T14:14:52;6.90;99.90
1359;DHT22;673;48.098;14.422;2023-03-01T14:17:44;6.90;99.90
1359;DHT22;673;48.098;14.422;2023-03-01T14:20:18;6.90;99.90
1359;DHT22;673;48.098;14.422;2023-03-01T14:22:48;7.10;99.90
1359;DHT22;673;48.098;14.422;2023-03-01T14:25:25;7.10;99.90
1359;DHT22;673;48.098;14.422;2023-03-01T14:27:59;7.10;99.90
1359;DHT22;673;48.098;14.422;2023-03-01T14:30:30;7.10;99.90
1359;DHT22;673;48.098;14.422;2023-03-01T14:33:01;7.00;99.90
1359;DHT22;673;48.098;14.422;2023-03-01T14:35:30;6.90;99.90
1359;DHT22;673;48.098;14.422;2023-03-01T14:37:57;6.80;99.90
1359;DHT22;673;48.098;14.422;2023-03-01T14:40:27;6.70;99.90
1359;DHT22;673;48.098;14.422;2023-03-01T14:42:55;6.70;99.90
1359;DHT22;673;48.098;14.422;2023-03-01T14:45:25;6.70;99.90
1359;DHT22;673;48.098;14.422;2023-03-01T14:47:53;6.80;99.90
1359;DHT22;673;48.098;14.422;2023-03-01T14:50:27;6.80;99.90
1359;DHT22;673;48.098;14.422;2023-03-01T14:52:56;6.80;99.90
1359;DHT22;673;48.098;14.422;2023-03-01T14:55:27;6.80;99.90
1359;DHT22;673;48.098;14.422;2023-03-01T14:57:56;6.70;99.90
1359;DHT22;673;48.098;14.422;2023-03-01T15:00:25;6.70;99.90
1359;DHT22;673;48.098;14.422;2023-03-01T15:02:54;6.60;99.90
1359;DHT22;673;48.098;14.422;2023-03-01T15:05:27;6.60;99.90
1359;DHT22;673;48.098;14.422;2023-03-01T15:07:57;6.60;99.90
1359;DHT22;673;48.098;14.422;2023-03-01T15:10:26;6.60;99.90
1359;DHT22;673;48.098;14.422;2023-03-01T15:12:53;6.60;99.90
1359;DHT22;673;48.098;14.422;2023-03-01T15:15:33;6.50;99.90
1359;DHT22;673;48.098;14.422;2023-03-01T15:18:03;6.40;99.90
1359;DHT22;673;48.098;14.422;2023-03-01T15:20:33;6.50;99.90
1359;DHT22;673;48.098;14.422;2023-03-01T15:23:02;6.40;99.90
1359;DHT22;673;48.098;14.422;2023-03-01T15:25:31;6.40;99.90
1359;DHT22;673;48.098;14.422;2023-03-01T15:28:01;6.40;99.90
1359;DHT22;673;48.098;14.422;2023-03-01T15:30:31;6.40;99.90
1359;DHT22;673;48.098;14.422;2023-03-01T15:33:19;6.20;99.90
1359;DHT22;673;48.098;14.422;2023-03-01T15:35:49;6.10;99.90
1359;DHT22;673;48.098;14.422;2023-03-01T15:38:31;6.10;99.90
1359;DHT22;673;48.098;14.422;2023-03-01T15:41:00;6.00;99.90
1359;DHT22;673;48.098;14.422;2023-03-01T15:43:41;5.90;99.90
1359;DHT22;673;48.098;14.422;2023-03-01T15:46:18;5.80;99.90
1359;DHT22;673;48.098;14.422;2023-03-01T15:48:47;5.80;99.90
1359;DHT22;673;48.098;14.422;2023-03-01T15:51:18;5.70;99.90
1359;DHT22;673;48.098;14.422;2023-03-01T15:53:51;5.60;99.90
1359;DHT22;673;48.098;14.422;2023-03-01T15:56:19;5.60;99.90
1359;DHT22;673;48.098;14.422;2023-03-01T15:58:46;5.60;99.90
1359;DHT22;673;48.098;14.422;2023-03-01T16:01:15;5.50;99.90
1359;DHT22;673;48.098;14.422;2023-03-01T16:03:43;5.40;99.90
1359;DHT22;673;48.098;14.422;2023-03-01T16:06:10;5.40;99.90
1359;DHT22;673;48.098;14.422;2023-03-01T16:08:39;5.30;99.90
1359;DHT22;673;48.098;14.422;2023-03-01T16:11:13;5.20;99.90
1359;DHT22;673;48.098;14.422;2023-03-01T16:13:41;5.10;99.90
1359;DHT22;673;48.098;14.422;2023-03-01T16:16:10;5.10;99.90
1359;DHT22;673;48.098;14.422;2023-03-01T16:18:40;5.00;99.90
1359;DHT22;673;48.098;14.422;2023-03-01T16:21:11;4.90;99.90
1359;DHT22;673;48.098;14.422;2023-03-01T16:23:43;4.80;99.90
1359;DHT22;673;48.098;14.422;2023-03-01T16:26:10;4.80;99.90
1359;DHT22;673;48.098;14.422;2023-03-01T16:28:39;4.70;99.90
1359;DHT22;673;48.098;14.422;2023-03-01T16:31:06;4.70;99.90
1359;DHT22;673;48.098;14.422;2023-03-01T16:33:33;4.60;99.90
1359;DHT22;673;48.098;14.422;2023-03-01T16:36:00;4.60;99.90
1359;DHT22;673;48.098;14.422;2023-03-01T16:38:30;4.60;99.90
1359;DHT22;673;48.098;14.422;2023-03-01T16:40:59;4.60;99.90